sensor_id;sensor_type;location;lat;lon;timestamp;P1;durP1;ratioP1;P2;durP2;ratioP2
39140;SDS011;24875;48.436;10.298;2022-11-20T00:00:00;6.53;;;3.60;;
39140;SDS011;24875;48.436;10.298;2022-11-20T00:02:27;9.53;;;3.90;;
39140;SDS011;24875;48.436;10.298;2022-11-20T00:04:53;7.83;;;3.57;;
39140;SDS011;24875;48.436;10.298;2022-11-20T00:07:21;5.40;;;3.20;;
39140;SDS011;24875;48.436;10.298;2022-11-20T00:09:48;6.97;;;3.70;;
39140;SDS011;24875;48.436;10.298;2022-11-20T00:12:14;6.13;;;3.53;;
39140;SDS011;24875;48.436;10.298;2022-11-20T00:14:41;7.17;;;3.87;;
39140;SDS011;24875;48.436;10.298;2022-11-20T00:17:07;8.20;;;3.70;;
39140;SDS011;24875;48.436;10.298;2022-11-20T00:19:34;6.43;;;3.50;;
39140;SDS011;24875;48.436;10.298;2022-11-20T00:22:00;8.60;;;3.47;;
39140;SDS011;24875;48.436;10.298;2022-11-20T00:24:28;8.90;;;4.10;;
39140;SDS011;24875;48.436;10.298;2022-11-20T00:26:54;7.07;;;3.60;;
39140;SDS011;24875;48.436;10.298;2022-11-20T00:29:21;9.53;;;3.80;;
39140;SDS011;24875;48.436;10.298;2022-11-20T00:31:47;8.80;;;4.23;;
39140;SDS011;24875;48.436;10.298;2022-11-20T00:34:14;7.03;;;3.90;;
39140;SDS011;24875;48.436;10.298;2022-11-20T00:36:40;8.47;;;3.83;;
39140;SDS011;24875;48.436;10.298;2022-11-20T00:39:07;8.60;;;4.20;;
39140;SDS011;24875;48.436;10.298;2022-11-20T00:41:35;6.10;;;3.80;;
39140;SDS011;24875;48.436;10.298;2022-11-20T00:44:01;7.87;;;3.77;;
39140;SDS011;24875;48.436;10.298;2022-11-20T00:46:28;6.43;;;3.90;;
39140;SDS011;24875;48.436;10.298;2022-11-20T00:48:54;7.43;;;4.03;;
39140;SDS011;24875;48.436;10.298;2022-11-20T00:51:22;7.23;;;3.43;;
39140;SDS011;24875;48.436;10.298;2022-11-20T00:53:49;6.53;;;3.43;;
39140;SDS011;24875;48.436;10.298;2022-11-20T00:56:17;5.70;;;3.10;;
39140;SDS011;24875;48.436;10.298;2022-11-20T00:58:46;5.97;;;3.60;;
39140;SDS011;24875;48.436;10.298;2022-11-20T01:01:14;7.40;;;3.33;;
39140;SDS011;24875;48.436;10.298;2022-11-20T01:03:42;5.27;;;3.07;;
39140;SDS011;24875;48.436;10.298;2022-11-20T01:06:11;9.07;;;3.53;;
39140;SDS011;24875;48.436;10.298;2022-11-20T01:08:39;5.43;;;2.90;;
39140;SDS011;24875;48.436;10.298;2022-11-20T01:11:06;6.20;;;3.37;;
39140;SDS011;24875;48.436;10.298;2022-11-20T01:13:34;7.97;;;3.70;;
39140;SDS011;24875;48.436;10.298;2022-11-20T01:16:08;6.07;;;3.37;;
39140;SDS011;24875;48.436;10.298;2022-11-20T01:18:36;7.43;;;3.83;;
39140;SDS011;24875;48.436;10.298;2022-11-20T01:21:05;8.03;;;3.50;;
39140;SDS011;24875;48.436;10.298;2022-11-20T01:23:34;6.47;;;3.20;;
39140;SDS011;24875;48.436;10.298;2022-11-20T01:26:02;5.53;;;3.10;;
39140;SDS011;24875;48.436;10.298;2022-11-20T01:28:31;9.07;;;3.43;;
39140;SDS011;24875;48.436;10.298;2022-11-20T01:30:58;8.43;;;3.57;;
39140;SDS011;24875;48.436;10.298;2022-11-20T01:33:26;5.73;;;3.30;;
39140;SDS011;24875;48.436;10.298;2022-11-20T01:35:53;6.00;;;3.30;;
39140;SDS011;24875;48.436;10.298;2022-11-20T01:38:30;7.40;;;3.37;;
39140;SDS011;24875;48.436;10.298;2022-11-20T01:40:56;6.73;;;3.40;;
39140;SDS011;24875;48.436;10.298;2022-11-20T01:43:23;6.63;;;3.17;;
39140;SDS011;24875;48.436;10.298;2022-11-20T01:45:56;7.70;;;3.60;;
39140;SDS011;24875;48.436;10.298;2022-11-20T01:48:28;5.43;;;2.87;;
39140;SDS011;24875;48.436;10.298;2022-11-20T01:50:59;8.50;;;3.67;;
39140;SDS011;24875;48.436;10.298;2022-11-20T01:53:30;9.10;;;3.40;;
39140;SDS011;24875;48.436;10.298;2022-11-20T01:56:02;6.43;;;3.37;;
39140;SDS011;24875;48.436;10.298;2022-11-20T01:58:33;5.80;;;3.13;;
39140;SDS011;24875;48.436;10.298;2022-11-20T02:01:04;8.63;;;3.23;;
39140;SDS011;24875;48.436;10.298;2022-11-20T02:03:32;7.13;;;3.00;;
39140;SDS011;24875;48.436;10.298;2022-11-20T02:06:01;6.37;;;3.10;;
39140;SDS011;24875;48.436;10.298;2022-11-20T02:08:33;11.30;;;3.63;;
39140;SDS011;24875;48.436;10.298;2022-11-20T02:11:01;5.67;;;3.10;;
39140;SDS011;24875;48.436;10.298;2022-11-20T02:13:28;5.30;;;2.73;;
39140;SDS011;24875;48.436;10.298;2022-11-20T02:16:09;5.77;;;3.40;;
39140;SDS011;24875;48.436;10.298;2022-11-20T02:18:40;6.43;;;3.43;;
39140;SDS011;24875;48.436;10.298;2022-11-20T02:21:09;8.50;;;3.70;;
39140;SDS011;24875;48.436;10.298;2022-11-20T02:26:38;8.00;;;3.20;;
39140;SDS011;24875;48.436;10.298;2022-11-20T02:29:08;5.93;;;3.30;;
39140;SDS011;24875;48.436;10.298;2022-11-20T02:31:36;5.03;;;2.97;;
39140;SDS011;24875;48.436;10.298;2022-11-20T02:34:04;5.73;;;3.07;;
39140;SDS011;24875;48.436;10.298;2022-11-20T02:36:31;6.60;;;2.77;;
39140;SDS011;24875;48.436;10.298;2022-11-20T02:39:00;6.30;;;3.03;;
39140;SDS011;24875;48.436;10.298;2022-11-20T02:41:32;6.07;;;3.27;;
39140;SDS011;24875;48.436;10.298;2022-11-20T02:43:59;5.53;;;2.87;;
39140;SDS011;24875;48.436;10.298;2022-11-20T02:46:26;9.33;;;2.93;;
39140;SDS011;24875;48.436;10.298;2022-11-20T02:48:53;5.30;;;2.60;;
39140;SDS011;24875;48.436;10.298;2022-11-20T02:51:20;5.27;;;2.73;;
39140;SDS011;24875;48.436;10.298;2022-11-20T02:53:46;6.27;;;3.07;;
39140;SDS011;24875;48.436;10.298;2022-11-20T02:56:12;5.80;;;3.20;;
39140;SDS011;24875;48.436;10.298;2022-11-20T02:58:41;8.77;;;3.10;;
39140;SDS011;24875;48.436;10.298;2022-11-20T03:01:07;7.40;;;2.67;;
39140;SDS011;24875;48.436;10.298;2022-11-20T03:03:33;5.93;;;3.00;;
39140;SDS011;24875;48.436;10.298;2022-11-20T03:06:00;7.53;;;3.17;;
39140;SDS011;24875;48.436;10.298;2022-11-20T03:08:26;5.83;;;2.50;;
39140;SDS011;24875;48.436;10.298;2022-11-20T03:10:53;5.40;;;2.83;;
39140;SDS011;24875;48.436;10.298;2022-11-20T03:13:19;6.73;;;3.00;;
39140;SDS011;24875;48.436;10.298;2022-11-20T03:15:47;5.93;;;3.13;;
39140;SDS011;24875;48.436;10.298;2022-11-20T03:18:14;6.20;;;3.20;;
39140;SDS011;24875;48.436;10.298;2022-11-20T03:20:40;6.40;;;3.07;;
39140;SDS011;24875;48.436;10.298;2022-11-20T03:23:07;5.73;;;2.77;;
39140;SDS011;24875;48.436;10.298;2022-11-20T03:25:33;5.70;;;3.43;;
39140;SDS011;24875;48.436;10.298;2022-11-20T03:28:00;3.07;;;2.10;;
39140;SDS011;24875;48.436;10.298;2022-11-20T03:30:27;5.20;;;2.83;;
39140;SDS011;24875;48.436;10.298;2022-11-20T03:32:54;4.33;;;2.53;;
39140;SDS011;24875;48.436;10.298;2022-11-20T03:35:21;6.43;;;2.97;;
39140;SDS011;24875;48.436;10.298;2022-11-20T03:37:47;6.73;;;3.33;;
39140;SDS011;24875;48.436;10.298;2022-11-20T03:40:14;7.40;;;3.00;;
39140;SDS011;24875;48.436;10.298;2022-11-20T03:42:40;3.60;;;1.93;;
39140;SDS011;24875;48.436;10.298;2022-11-20T03:45:13;4.50;;;2.80;;
39140;SDS011;24875;48.436;10.298;2022-11-20T03:47:40;6.40;;;2.63;;
39140;SDS011;24875;48.436;10.298;2022-11-20T03:50:08;5.30;;;2.43;;
39140;SDS011;24875;48.436;10.298;2022-11-20T03:52:37;4.30;;;2.60;;
39140;SDS011;24875;48.436;10.298;2022-11-20T03:55:04;6.20;;;2.90;;
39140;SDS011;24875;48.436;10.298;2022-11-20T03:57:30;8.33;;;3.10;;
39140;SDS011;24875;48.436;10.298;2022-11-20T03:59:57;4.70;;;2.70;;
39140;SDS011;24875;48.436;10.298;2022-11-20T04:02:24;4.07;;;1.63;;
39140;SDS011;24875;48.436;10.298;2022-11-20T04:04:50;5.90;;;3.20;;
39140;SDS011;24875;48.436;10.298;2022-11-20T04:07:18;6.67;;;3.00;;
39140;SDS011;24875;48.436;10.298;2022-11-20T04:09:44;3.90;;;2.07;;
39140;SDS011;24875;48.436;10.298;2022-11-20T04:12:11;7.40;;;2.93;;
39140;SDS011;24875;48.436;10.298;2022-11-20T04:14:37;6.03;;;3.10;;
39140;SDS011;24875;48.436;10.298;2022-11-20T04:17:04;6.20;;;3.00;;
39140;SDS011;24875;48.436;10.298;2022-11-20T04:19:30;6.03;;;3.10;;
39140;SDS011;24875;48.436;10.298;2022-11-20T04:21:57;5.57;;;3.40;;
39140;SDS011;24875;48.436;10.298;2022-11-20T04:24:24;6.23;;;2.97;;
39140;SDS011;24875;48.436;10.298;2022-11-20T04:26:52;9.00;;;2.67;;
39140;SDS011;24875;48.436;10.298;2022-11-20T04:29:18;4.47;;;2.57;;
39140;SDS011;24875;48.436;10.298;2022-11-20T04:31:45;4.43;;;2.40;;
39140;SDS011;24875;48.436;10.298;2022-11-20T04:34:11;6.10;;;3.27;;
39140;SDS011;24875;48.436;10.298;2022-11-20T04:36:38;5.10;;;2.70;;
39140;SDS011;24875;48.436;10.298;2022-11-20T04:39:05;6.77;;;3.27;;
39140;SDS011;24875;48.436;10.298;2022-11-20T04:41:34;3.47;;;1.37;;
39140;SDS011;24875;48.436;10.298;2022-11-20T04:44:02;4.23;;;1.53;;
39140;SDS011;24875;48.436;10.298;2022-11-20T04:46:30;11.70;;;3.43;;
39140;SDS011;24875;48.436;10.298;2022-11-20T04:48:58;5.67;;;2.73;;
39140;SDS011;24875;48.436;10.298;2022-11-20T04:51:25;4.87;;;2.87;;
39140;SDS011;24875;48.436;10.298;2022-11-20T04:53:51;6.53;;;2.93;;
39140;SDS011;24875;48.436;10.298;2022-11-20T04:56:18;2.67;;;1.70;;
39140;SDS011;24875;48.436;10.298;2022-11-20T04:58:46;8.17;;;3.37;;
39140;SDS011;24875;48.436;10.298;2022-11-20T05:01:13;6.10;;;2.93;;
39140;SDS011;24875;48.436;10.298;2022-11-20T05:03:41;7.43;;;3.50;;
39140;SDS011;24875;48.436;10.298;2022-11-20T05:06:09;5.67;;;2.30;;
39140;SDS011;24875;48.436;10.298;2022-11-20T05:08:36;6.70;;;3.20;;
39140;SDS011;24875;48.436;10.298;2022-11-20T05:11:03;9.47;;;3.57;;
39140;SDS011;24875;48.436;10.298;2022-11-20T05:13:31;5.10;;;3.10;;
39140;SDS011;24875;48.436;10.298;2022-11-20T05:16:02;6.00;;;3.10;;
39140;SDS011;24875;48.436;10.298;2022-11-20T05:18:29;6.47;;;3.07;;
39140;SDS011;24875;48.436;10.298;2022-11-20T05:20:56;10.67;;;4.17;;
39140;SDS011;24875;48.436;10.298;2022-11-20T05:23:23;7.53;;;4.00;;
39140;SDS011;24875;48.436;10.298;2022-11-20T05:25:51;7.47;;;3.10;;
39140;SDS011;24875;48.436;10.298;2022-11-20T05:28:18;7.43;;;4.03;;
39140;SDS011;24875;48.436;10.298;2022-11-20T05:30:44;9.83;;;3.87;;
39140;SDS011;24875;48.436;10.298;2022-11-20T05:33:12;9.60;;;4.13;;
39140;SDS011;24875;48.436;10.298;2022-11-20T05:35:39;7.87;;;3.77;;
39140;SDS011;24875;48.436;10.298;2022-11-20T05:38:05;12.43;;;3.60;;
39140;SDS011;24875;48.436;10.298;2022-11-20T05:40:32;11.77;;;4.73;;
39140;SDS011;24875;48.436;10.298;2022-11-20T05:42:59;7.23;;;3.83;;
39140;SDS011;24875;48.436;10.298;2022-11-20T05:45:26;10.73;;;4.80;;
39140;SDS011;24875;48.436;10.298;2022-11-20T05:47:52;10.33;;;4.80;;
39140;SDS011;24875;48.436;10.298;2022-11-20T05:50:20;9.30;;;4.43;;
39140;SDS011;24875;48.436;10.298;2022-11-20T05:52:47;14.53;;;5.13;;
39140;SDS011;24875;48.436;10.298;2022-11-20T05:55:13;10.83;;;4.73;;
39140;SDS011;24875;48.436;10.298;2022-11-20T05:57:40;12.27;;;4.83;;
39140;SDS011;24875;48.436;10.298;2022-11-20T06:00:07;9.77;;;5.13;;
39140;SDS011;24875;48.436;10.298;2022-11-20T06:02:34;10.70;;;5.43;;
39140;SDS011;24875;48.436;10.298;2022-11-20T06:05:01;13.50;;;5.43;;
39140;SDS011;24875;48.436;10.298;2022-11-20T06:07:30;9.73;;;4.30;;
39140;SDS011;24875;48.436;10.298;2022-11-20T06:09:56;10.40;;;5.13;;
39140;SDS011;24875;48.436;10.298;2022-11-20T06:12:23;9.53;;;5.30;;
39140;SDS011;24875;48.436;10.298;2022-11-20T06:14:49;13.13;;;5.93;;
39140;SDS011;24875;48.436;10.298;2022-11-20T06:17:16;8.60;;;3.90;;
39140;SDS011;24875;48.436;10.298;2022-11-20T06:19:42;10.47;;;5.23;;
39140;SDS011;24875;48.436;10.298;2022-11-20T06:22:08;8.30;;;4.07;;
39140;SDS011;24875;48.436;10.298;2022-11-20T06:24:36;11.40;;;5.27;;
39140;SDS011;24875;48.436;10.298;2022-11-20T06:27:03;10.83;;;4.67;;
39140;SDS011;24875;48.436;10.298;2022-11-20T06:29:29;12.07;;;5.53;;
39140;SDS011;24875;48.436;10.298;2022-11-20T06:31:56;8.77;;;4.83;;
39140;SDS011;24875;48.436;10.298;2022-11-20T06:34:22;13.60;;;5.57;;
39140;SDS011;24875;48.436;10.298;2022-11-20T06:36:49;13.17;;;5.20;;
39140;SDS011;24875;48.436;10.298;2022-11-20T06:39:15;9.53;;;5.13;;
39140;SDS011;24875;48.436;10.298;2022-11-20T06:41:43;13.47;;;6.03;;
39140;SDS011;24875;48.436;10.298;2022-11-20T06:44:09;29.10;;;8.80;;
39140;SDS011;24875;48.436;10.298;2022-11-20T06:46:36;12.90;;;5.30;;
39140;SDS011;24875;48.436;10.298;2022-11-20T06:49:03;12.80;;;5.70;;
39140;SDS011;24875;48.436;10.298;2022-11-20T06:51:29;12.53;;;5.33;;
39140;SDS011;24875;48.436;10.298;2022-11-20T06:53:56;9.57;;;4.23;;
39140;SDS011;24875;48.436;10.298;2022-11-20T06:56:22;13.03;;;5.17;;
39140;SDS011;24875;48.436;10.298;2022-11-20T06:58:50;10.73;;;5.60;;
39140;SDS011;24875;48.436;10.298;2022-11-20T07:01:16;11.03;;;4.57;;
39140;SDS011;24875;48.436;10.298;2022-11-20T07:03:43;8.80;;;4.47;;
39140;SDS011;24875;48.436;10.298;2022-11-20T07:06:10;12.43;;;4.97;;
39140;SDS011;24875;48.436;10.298;2022-11-20T07:08:36;9.47;;;4.63;;
39140;SDS011;24875;48.436;10.298;2022-11-20T07:11:04;11.00;;;5.30;;
39140;SDS011;24875;48.436;10.298;2022-11-20T07:13:31;9.03;;;3.67;;
39140;SDS011;24875;48.436;10.298;2022-11-20T07:16:00;9.13;;;4.57;;
39140;SDS011;24875;48.436;10.298;2022-11-20T07:18:28;7.87;;;3.40;;
39140;SDS011;24875;48.436;10.298;2022-11-20T07:20:54;9.10;;;4.03;;
39140;SDS011;24875;48.436;10.298;2022-11-20T07:23:21;9.13;;;4.40;;
39140;SDS011;24875;48.436;10.298;2022-11-20T07:25:47;7.87;;;4.23;;
39140;SDS011;24875;48.436;10.298;2022-11-20T07:28:14;12.53;;;5.70;;
39140;SDS011;24875;48.436;10.298;2022-11-20T07:30:40;9.77;;;4.10;;
39140;SDS011;24875;48.436;10.298;2022-11-20T07:33:08;5.97;;;3.30;;
39140;SDS011;24875;48.436;10.298;2022-11-20T07:35:34;13.13;;;4.77;;
39140;SDS011;24875;48.436;10.298;2022-11-20T07:38:01;6.27;;;2.93;;
39140;SDS011;24875;48.436;10.298;2022-11-20T07:40:27;25.93;;;8.70;;
39140;SDS011;24875;48.436;10.298;2022-11-20T07:42:54;8.53;;;4.03;;
39140;SDS011;24875;48.436;10.298;2022-11-20T07:45:21;9.03;;;3.63;;
39140;SDS011;24875;48.436;10.298;2022-11-20T07:47:50;7.97;;;3.63;;
39140;SDS011;24875;48.436;10.298;2022-11-20T07:50:19;8.60;;;4.33;;
39140;SDS011;24875;48.436;10.298;2022-11-20T07:52:46;8.10;;;4.17;;
39140;SDS011;24875;48.436;10.298;2022-11-20T07:55:12;5.80;;;3.20;;
39140;SDS011;24875;48.436;10.298;2022-11-20T07:57:39;6.80;;;3.20;;
39140;SDS011;24875;48.436;10.298;2022-11-20T08:00:06;2.83;;;1.90;;
39140;SDS011;24875;48.436;10.298;2022-11-20T08:02:36;6.70;;;3.03;;
39140;SDS011;24875;48.436;10.298;2022-11-20T08:05:04;4.37;;;2.33;;
39140;SDS011;24875;48.436;10.298;2022-11-20T08:07:35;6.20;;;3.40;;
39140;SDS011;24875;48.436;10.298;2022-11-20T08:10:03;6.53;;;3.20;;
39140;SDS011;24875;48.436;10.298;2022-11-20T08:12:29;6.70;;;3.27;;
39140;SDS011;24875;48.436;10.298;2022-11-20T08:15:14;6.00;;;2.83;;
39140;SDS011;24875;48.436;10.298;2022-11-20T08:17:40;1.90;;;1.50;;
39140;SDS011;24875;48.436;10.298;2022-11-20T08:20:07;6.80;;;3.13;;
39140;SDS011;24875;48.436;10.298;2022-11-20T08:22:36;8.60;;;3.77;;
39140;SDS011;24875;48.436;10.298;2022-11-20T08:25:02;6.83;;;2.80;;
39140;SDS011;24875;48.436;10.298;2022-11-20T08:27:31;7.47;;;3.23;;
39140;SDS011;24875;48.436;10.298;2022-11-20T08:29:57;3.77;;;2.23;;
39140;SDS011;24875;48.436;10.298;2022-11-20T08:32:24;4.10;;;2.53;;
39140;SDS011;24875;48.436;10.298;2022-11-20T08:34:50;8.10;;;3.13;;
39140;SDS011;24875;48.436;10.298;2022-11-20T08:37:17;4.03;;;2.30;;
39140;SDS011;24875;48.436;10.298;2022-11-20T08:39:45;7.40;;;3.60;;
39140;SDS011;24875;48.436;10.298;2022-11-20T08:42:11;8.87;;;4.27;;
39140;SDS011;24875;48.436;10.298;2022-11-20T08:44:38;9.40;;;3.77;;
39140;SDS011;24875;48.436;10.298;2022-11-20T08:47:04;6.60;;;3.63;;
39140;SDS011;24875;48.436;10.298;2022-11-20T08:49:31;5.07;;;2.13;;
39140;SDS011;24875;48.436;10.298;2022-11-20T08:51:57;4.83;;;2.20;;
39140;SDS011;24875;48.436;10.298;2022-11-20T08:54:24;6.83;;;3.50;;
39140;SDS011;24875;48.436;10.298;2022-11-20T08:56:52;5.93;;;3.13;;
39140;SDS011;24875;48.436;10.298;2022-11-20T08:59:18;6.30;;;2.87;;
39140;SDS011;24875;48.436;10.298;2022-11-20T09:01:45;3.77;;;2.50;;
39140;SDS011;24875;48.436;10.298;2022-11-20T09:04:11;8.00;;;3.37;;
39140;SDS011;24875;48.436;10.298;2022-11-20T09:06:39;5.93;;;2.43;;
39140;SDS011;24875;48.436;10.298;2022-11-20T09:09:05;5.03;;;2.77;;
39140;SDS011;24875;48.436;10.298;2022-11-20T09:11:32;3.60;;;2.07;;
39140;SDS011;24875;48.436;10.298;2022-11-20T09:14:00;6.27;;;3.43;;
39140;SDS011;24875;48.436;10.298;2022-11-20T09:16:27;2.93;;;1.47;;
39140;SDS011;24875;48.436;10.298;2022-11-20T09:18:54;6.97;;;3.70;;
39140;SDS011;24875;48.436;10.298;2022-11-20T09:21:20;7.67;;;2.77;;
39140;SDS011;24875;48.436;10.298;2022-11-20T09:23:47;5.70;;;2.60;;
39140;SDS011;24875;48.436;10.298;2022-11-20T09:26:14;10.23;;;3.93;;
39140;SDS011;24875;48.436;10.298;2022-11-20T09:28:40;10.23;;;3.50;;
39140;SDS011;24875;48.436;10.298;2022-11-20T09:31:11;6.33;;;3.23;;
39140;SDS011;24875;48.436;10.298;2022-11-20T09:33:45;6.50;;;3.73;;
39140;SDS011;24875;48.436;10.298;2022-11-20T09:36:12;8.53;;;2.67;;
39140;SDS011;24875;48.436;10.298;2022-11-20T09:38:38;4.97;;;2.60;;
39140;SDS011;24875;48.436;10.298;2022-11-20T09:41:05;4.57;;;2.50;;
39140;SDS011;24875;48.436;10.298;2022-11-20T09:43:38;5.20;;;2.50;;
39140;SDS011;24875;48.436;10.298;2022-11-20T09:46:14;3.27;;;2.23;;
39140;SDS011;24875;48.436;10.298;2022-11-20T09:48:53;2.67;;;1.77;;
39140;SDS011;24875;48.436;10.298;2022-11-20T09:51:33;5.47;;;2.60;;
39140;SDS011;24875;48.436;10.298;2022-11-20T09:54:08;4.93;;;2.30;;
39140;SDS011;24875;48.436;10.298;2022-11-20T09:56:44;2.67;;;2.03;;
39140;SDS011;24875;48.436;10.298;2022-11-20T09:59:20;3.37;;;1.90;;
39140;SDS011;24875;48.436;10.298;2022-11-20T10:01:57;6.27;;;2.10;;
39140;SDS011;24875;48.436;10.298;2022-11-20T10:04:26;2.93;;;1.90;;
39140;SDS011;24875;48.436;10.298;2022-11-20T10:07:00;4.20;;;2.33;;
39140;SDS011;24875;48.436;10.298;2022-11-20T10:09:31;3.37;;;1.97;;
39140;SDS011;24875;48.436;10.298;2022-11-20T10:12:05;5.77;;;3.23;;
39140;SDS011;24875;48.436;10.298;2022-11-20T10:14:41;4.87;;;2.70;;
39140;SDS011;24875;48.436;10.298;2022-11-20T10:17:21;7.80;;;1.60;;
39140;SDS011;24875;48.436;10.298;2022-11-20T10:20:12;3.77;;;2.30;;
39140;SDS011;24875;48.436;10.298;2022-11-20T10:22:47;2.03;;;1.40;;
39140;SDS011;24875;48.436;10.298;2022-11-20T10:25:24;4.00;;;2.47;;
39140;SDS011;24875;48.436;10.298;2022-11-20T10:28:06;8.57;;;2.23;;
39140;SDS011;24875;48.436;10.298;2022-11-20T10:30:44;8.33;;;2.57;;
39140;SDS011;24875;48.436;10.298;2022-11-20T10:33:17;2.27;;;1.60;;
39140;SDS011;24875;48.436;10.298;2022-11-20T10:35:49;2.93;;;1.30;;
39140;SDS011;24875;48.436;10.298;2022-11-20T10:38:21;5.17;;;1.80;;
39140;SDS011;24875;48.436;10.298;2022-11-20T10:40:52;6.00;;;2.67;;
39140;SDS011;24875;48.436;10.298;2022-11-20T10:43:42;2.90;;;1.93;;
39140;SDS011;24875;48.436;10.298;2022-11-20T10:46:12;4.27;;;2.50;;
39140;SDS011;24875;48.436;10.298;2022-11-20T10:48:43;4.50;;;2.47;;
39140;SDS011;24875;48.436;10.298;2022-11-20T10:51:13;2.10;;;1.30;;
39140;SDS011;24875;48.436;10.298;2022-11-20T10:53:56;4.40;;;2.13;;
39140;SDS011;24875;48.436;10.298;2022-11-20T10:56:31;1.73;;;1.20;;
39140;SDS011;24875;48.436;10.298;2022-11-20T10:59:21;0.80;;;0.77;;
39140;SDS011;24875;48.436;10.298;2022-11-20T11:01:58;1.57;;;1.27;;
39140;SDS011;24875;48.436;10.298;2022-11-20T11:04:32;4.67;;;1.60;;
39140;SDS011;24875;48.436;10.298;2022-11-20T11:07:05;1.33;;;0.90;;
39140;SDS011;24875;48.436;10.298;2022-11-20T11:09:37;1.70;;;1.27;;
39140;SDS011;24875;48.436;10.298;2022-11-20T11:12:07;4.50;;;2.07;;
39140;SDS011;24875;48.436;10.298;2022-11-20T11:14:41;3.27;;;1.67;;
39140;SDS011;24875;48.436;10.298;2022-11-20T11:17:18;3.53;;;1.70;;
39140;SDS011;24875;48.436;10.298;2022-11-20T11:19:57;2.03;;;1.40;;
39140;SDS011;24875;48.436;10.298;2022-11-20T11:22:24;1.67;;;1.00;;
39140;SDS011;24875;48.436;10.298;2022-11-20T11:24:51;2.27;;;1.43;;
39140;SDS011;24875;48.436;10.298;2022-11-20T11:27:19;1.63;;;1.13;;
39140;SDS011;24875;48.436;10.298;2022-11-20T11:29:46;3.77;;;1.63;;
39140;SDS011;24875;48.436;10.298;2022-11-20T11:32:13;1.90;;;1.37;;
39140;SDS011;24875;48.436;10.298;2022-11-20T11:34:41;5.07;;;1.73;;
39140;SDS011;24875;48.436;10.298;2022-11-20T11:37:13;4.60;;;2.33;;
39140;SDS011;24875;48.436;10.298;2022-11-20T11:39:43;5.00;;;2.90;;
39140;SDS011;24875;48.436;10.298;2022-11-20T11:42:12;4.57;;;2.50;;
39140;SDS011;24875;48.436;10.298;2022-11-20T11:44:43;4.10;;;1.80;;
39140;SDS011;24875;48.436;10.298;2022-11-20T11:47:29;4.30;;;2.13;;
39140;SDS011;24875;48.436;10.298;2022-11-20T11:50:02;6.10;;;2.50;;
39140;SDS011;24875;48.436;10.298;2022-11-20T11:52:43;5.93;;;2.87;;
39140;SDS011;24875;48.436;10.298;2022-11-20T11:55:14;2.93;;;2.03;;
39140;SDS011;24875;48.436;10.298;2022-11-20T11:57:46;5.30;;;3.33;;
39140;SDS011;24875;48.436;10.298;2022-11-20T12:00:16;5.60;;;2.63;;
39140;SDS011;24875;48.436;10.298;2022-11-20T12:02:49;3.97;;;1.90;;
39140;SDS011;24875;48.436;10.298;2022-11-20T12:05:24;4.80;;;2.43;;
39140;SDS011;24875;48.436;10.298;2022-11-20T12:07:56;4.30;;;2.47;;
39140;SDS011;24875;48.436;10.298;2022-11-20T12:10:30;4.20;;;2.30;;
39140;SDS011;24875;48.436;10.298;2022-11-20T12:13:09;2.67;;;1.53;;
39140;SDS011;24875;48.436;10.298;2022-11-20T12:15:46;6.57;;;2.73;;
39140;SDS011;24875;48.436;10.298;2022-11-20T12:18:14;6.47;;;3.10;;
39140;SDS011;24875;48.436;10.298;2022-11-20T12:20:44;5.97;;;2.57;;
39140;SDS011;24875;48.436;10.298;2022-11-20T12:23:23;9.00;;;2.53;;
39140;SDS011;24875;48.436;10.298;2022-11-20T12:25:58;11.90;;;3.73;;
39140;SDS011;24875;48.436;10.298;2022-11-20T12:28:38;6.07;;;2.63;;
39140;SDS011;24875;48.436;10.298;2022-11-20T12:31:20;18.67;;;5.87;;
39140;SDS011;24875;48.436;10.298;2022-11-20T12:34:09;7.93;;;4.07;;
39140;SDS011;24875;48.436;10.298;2022-11-20T12:36:49;8.57;;;2.90;;
39140;SDS011;24875;48.436;10.298;2022-11-20T12:39:30;4.77;;;2.30;;
39140;SDS011;24875;48.436;10.298;2022-11-20T12:48:10;6.17;;;1.60;;
39140;SDS011;24875;48.436;10.298;2022-11-20T12:50:51;2.43;;;1.13;;
39140;SDS011;24875;48.436;10.298;2022-11-20T12:53:37;1.67;;;1.20;;
39140;SDS011;24875;48.436;10.298;2022-11-20T12:56:15;4.30;;;1.90;;
39140;SDS011;24875;48.436;10.298;2022-11-20T12:58:49;2.87;;;1.77;;
39140;SDS011;24875;48.436;10.298;2022-11-20T13:01:27;2.53;;;1.80;;
39140;SDS011;24875;48.436;10.298;2022-11-20T13:06:59;7.13;;;1.47;;
39140;SDS011;24875;48.436;10.298;2022-11-20T13:09:27;2.97;;;1.80;;
39140;SDS011;24875;48.436;10.298;2022-11-20T13:11:59;2.37;;;1.50;;
39140;SDS011;24875;48.436;10.298;2022-11-20T13:14:35;4.27;;;2.20;;
39140;SDS011;24875;48.436;10.298;2022-11-20T13:17:10;8.80;;;2.70;;
39140;SDS011;24875;48.436;10.298;2022-11-20T13:19:40;5.30;;;2.87;;
39140;SDS011;24875;48.436;10.298;2022-11-20T13:22:07;3.07;;;1.83;;
39140;SDS011;24875;48.436;10.298;2022-11-20T13:24:34;4.87;;;2.20;;
39140;SDS011;24875;48.436;10.298;2022-11-20T13:27:03;5.67;;;2.27;;
39140;SDS011;24875;48.436;10.298;2022-11-20T13:29:43;3.40;;;1.90;;
39140;SDS011;24875;48.436;10.298;2022-11-20T13:32:13;5.37;;;2.10;;
39140;SDS011;24875;48.436;10.298;2022-11-20T13:34:50;7.07;;;2.20;;
39140;SDS011;24875;48.436;10.298;2022-11-20T13:37:24;4.80;;;2.47;;
39140;SDS011;24875;48.436;10.298;2022-11-20T13:39:52;4.80;;;1.90;;
39140;SDS011;24875;48.436;10.298;2022-11-20T13:42:23;3.83;;;1.90;;
39140;SDS011;24875;48.436;10.298;2022-11-20T13:44:54;2.73;;;1.73;;
39140;SDS011;24875;48.436;10.298;2022-11-20T13:47:21;2.63;;;1.87;;
39140;SDS011;24875;48.436;10.298;2022-11-20T13:49:50;3.30;;;1.37;;
39140;SDS011;24875;48.436;10.298;2022-11-20T13:52:27;3.27;;;2.20;;
39140;SDS011;24875;48.436;10.298;2022-11-20T13:55:10;9.70;;;2.40;;
39140;SDS011;24875;48.436;10.298;2022-11-20T14:00:48;3.40;;;1.63;;
39140;SDS011;24875;48.436;10.298;2022-11-20T14:03:21;5.10;;;1.80;;
39140;SDS011;24875;48.436;10.298;2022-11-20T14:05:51;2.77;;;1.53;;
39140;SDS011;24875;48.436;10.298;2022-11-20T14:08:25;3.30;;;1.70;;
39140;SDS011;24875;48.436;10.298;2022-11-20T14:11:04;6.13;;;3.27;;
39140;SDS011;24875;48.436;10.298;2022-11-20T14:13:31;3.23;;;1.70;;
39140;SDS011;24875;48.436;10.298;2022-11-20T14:15:59;4.53;;;2.40;;
39140;SDS011;24875;48.436;10.298;2022-11-20T14:18:26;10.17;;;4.63;;
39140;SDS011;24875;48.436;10.298;2022-11-20T14:20:53;2.33;;;1.50;;
39140;SDS011;24875;48.436;10.298;2022-11-20T14:23:23;4.87;;;1.57;;
39140;SDS011;24875;48.436;10.298;2022-11-20T14:25:51;2.20;;;1.20;;
39140;SDS011;24875;48.436;10.298;2022-11-20T14:28:20;2.33;;;1.10;;
39140;SDS011;24875;48.436;10.298;2022-11-20T14:30:51;3.03;;;0.90;;
39140;SDS011;24875;48.436;10.298;2022-11-20T14:33:19;5.03;;;2.50;;
39140;SDS011;24875;48.436;10.298;2022-11-20T14:35:50;1.57;;;1.27;;
39140;SDS011;24875;48.436;10.298;2022-11-20T14:38:18;2.30;;;1.30;;
39140;SDS011;24875;48.436;10.298;2022-11-20T14:40:48;2.43;;;1.50;;
39140;SDS011;24875;48.436;10.298;2022-11-20T14:43:18;3.80;;;1.67;;
39140;SDS011;24875;48.436;10.298;2022-11-20T14:45:48;3.13;;;1.60;;
39140;SDS011;24875;48.436;10.298;2022-11-20T14:48:23;3.77;;;1.17;;
39140;SDS011;24875;48.436;10.298;2022-11-20T14:50:54;5.03;;;1.40;;
39140;SDS011;24875;48.436;10.298;2022-11-20T14:53:22;2.63;;;1.07;;
39140;SDS011;24875;48.436;10.298;2022-11-20T14:55:54;2.60;;;1.23;;
39140;SDS011;24875;48.436;10.298;2022-11-20T14:58:22;5.23;;;1.97;;
39140;SDS011;24875;48.436;10.298;2022-11-20T15:00:53;4.97;;;2.57;;